sensor_id;sensor_type;location;lat;lon;timestamp;temperature;humidity
12386;DHT22;6257;57.634;18.310;2023-04-25T00:02:01;7.90;99.90
12386;DHT22;6257;57.634;18.310;2023-04-25T00:04:29;8.00;99.90
12386;DHT22;6257;57.634;18.310;2023-04-25T00:06:59;8.00;99.90
12386;DHT22;6257;57.634;18.310;2023-04-25T00:09:28;8.00;99.90
12386;DHT22;6257;57.634;18.310;2023-04-25T00:14:24;8.00;99.90
12386;DHT22;6257;57.634;18.310;2023-04-25T00:16:51;8.10;99.90
12386;DHT22;6257;57.634;18.310;2023-04-25T00:19:19;8.10;99.90
12386;DHT22;6257;57.634;18.310;2023-04-25T00:21:46;8.10;99.90
12386;DHT22;6257;57.634;18.310;2023-04-25T00:24:14;8.00;99.90
12386;DHT22;6257;57.634;18.310;2023-04-25T00:26:41;8.10;99.90
12386;DHT22;6257;57.634;18.310;2023-04-25T00:31:37;8.10;99.90
12386;DHT22;6257;57.634;18.310;2023-04-25T00:34:05;8.10;99.90
12386;DHT22;6257;57.634;18.310;2023-04-25T00:36:32;8.10;99.90
12386;DHT22;6257;57.634;18.310;2023-04-25T00:39:00;8.10;99.90
12386;DHT22;6257;57.634;18.310;2023-04-25T00:41:27;8.10;99.90
12386;DHT22;6257;57.634;18.310;2023-04-25T00:43:56;8.10;99.90
12386;DHT22;6257;57.634;18.310;2023-04-25T00:48:52;8.10;99.90
12386;DHT22;6257;57.634;18.310;2023-04-25T00:51:20;8.20;99.90
12386;DHT22;6257;57.634;18.310;2023-04-25T00:53:49;8.30;99.90
12386;DHT22;6257;57.634;18.310;2023-04-25T00:56:17;8.30;99.90
12386;DHT22;6257;57.634;18.310;2023-04-25T00:58:44;8.30;99.90
12386;DHT22;6257;57.634;18.310;2023-04-25T01:01:13;8.40;99.90
12386;DHT22;6257;57.634;18.310;2023-04-25T01:03:41;8.40;99.90
12386;DHT22;6257;57.634;18.310;2023-04-25T01:06:11;8.40;99.90
12386;DHT22;6257;57.634;18.310;2023-04-25T01:08:38;8.40;99.90
12386;DHT22;6257;57.634;18.310;2023-04-25T01:11:06;8.40;99.90
12386;DHT22;6257;57.634;18.310;2023-04-25T01:13:35;8.40;99.90
12386;DHT22;6257;57.634;18.310;2023-04-25T01:16:03;8.50;99.90
12386;DHT22;6257;57.634;18.310;2023-04-25T01:18:31;8.50;99.90
12386;DHT22;6257;57.634;18.310;2023-04-25T01:21:06;8.50;99.90
12386;DHT22;6257;57.634;18.310;2023-04-25T01:23:34;8.50;99.90
12386;DHT22;6257;57.634;18.310;2023-04-25T01:26:02;8.50;99.90
12386;DHT22;6257;57.634;18.310;2023-04-25T01:28:30;8.50;99.90
12386;DHT22;6257;57.634;18.310;2023-04-25T01:30:57;8.60;99.90
12386;DHT22;6257;57.634;18.310;2023-04-25T01:33:24;8.50;99.90
12386;DHT22;6257;57.634;18.310;2023-04-25T01:35:52;8.50;99.90
12386;DHT22;6257;57.634;18.310;2023-04-25T01:38:20;8.60;99.90
12386;DHT22;6257;57.634;18.310;2023-04-25T01:40:49;8.50;99.90
12386;DHT22;6257;57.634;18.310;2023-04-25T01:43:17;8.50;99.90
12386;DHT22;6257;57.634;18.310;2023-04-25T01:45:44;8.50;99.90
12386;DHT22;6257;57.634;18.310;2023-04-25T01:48:13;8.40;99.90
12386;DHT22;6257;57.634;18.310;2023-04-25T01:50:41;8.40;99.90
12386;DHT22;6257;57.634;18.310;2023-04-25T01:53:09;8.40;99.90
12386;DHT22;6257;57.634;18.310;2023-04-25T01:58:06;8.40;99.90
12386;DHT22;6257;57.634;18.310;2023-04-25T02:00:35;8.50;99.90
12386;DHT22;6257;57.634;18.310;2023-04-25T02:03:04;8.40;99.90
12386;DHT22;6257;57.634;18.310;2023-04-25T02:05:34;8.40;99.90
12386;DHT22;6257;57.634;18.310;2023-04-25T02:08:02;8.40;99.90
12386;DHT22;6257;57.634;18.310;2023-04-25T02:10:30;8.40;99.90
12386;DHT22;6257;57.634;18.310;2023-04-25T02:12:58;8.40;99.90
12386;DHT22;6257;57.634;18.310;2023-04-25T02:15:25;8.30;99.90
12386;DHT22;6257;57.634;18.310;2023-04-25T02:17:52;8.20;99.90
12386;DHT22;6257;57.634;18.310;2023-04-25T02:20:21;8.20;99.90
12386;DHT22;6257;57.634;18.310;2023-04-25T02:22:48;8.10;99.90
12386;DHT22;6257;57.634;18.310;2023-04-25T02:25:16;8.10;99.90
12386;DHT22;6257;57.634;18.310;2023-04-25T02:27:45;8.10;99.90
12386;DHT22;6257;57.634;18.310;2023-04-25T02:30:14;8.10;99.90
12386;DHT22;6257;57.634;18.310;2023-04-25T02:32:41;8.00;99.90
12386;DHT22;6257;57.634;18.310;2023-04-25T02:35:09;8.00;99.90
12386;DHT22;6257;57.634;18.310;2023-04-25T02:37:37;7.90;99.90
12386;DHT22;6257;57.634;18.310;2023-04-25T02:40:06;7.90;99.90
12386;DHT22;6257;57.634;18.310;2023-04-25T02:42:33;7.80;99.90
12386;DHT22;6257;57.634;18.310;2023-04-25T02:45:01;7.80;99.90
12386;DHT22;6257;57.634;18.310;2023-04-25T02:49:57;7.70;99.90
12386;DHT22;6257;57.634;18.310;2023-04-25T02:52:24;7.70;99.90
12386;DHT22;6257;57.634;18.310;2023-04-25T02:54:51;7.70;99.90
12386;DHT22;6257;57.634;18.310;2023-04-25T02:57:18;7.60;99.90
12386;DHT22;6257;57.634;18.310;2023-04-25T03:02:12;7.50;99.90
12386;DHT22;6257;57.634;18.310;2023-04-25T03:07:09;7.50;99.90
12386;DHT22;6257;57.634;18.310;2023-04-25T03:09:36;7.50;99.90
12386;DHT22;6257;57.634;18.310;2023-04-25T03:12:04;7.50;99.90
12386;DHT22;6257;57.634;18.310;2023-04-25T03:14:31;7.50;99.90
12386;DHT22;6257;57.634;18.310;2023-04-25T03:16:58;7.50;99.90
12386;DHT22;6257;57.634;18.310;2023-04-25T03:19:25;7.40;99.90
12386;DHT22;6257;57.634;18.310;2023-04-25T03:24:21;7.30;99.90
12386;DHT22;6257;57.634;18.310;2023-04-25T03:26:48;7.20;99.90
12386;DHT22;6257;57.634;18.310;2023-04-25T03:29:15;7.20;99.90
12386;DHT22;6257;57.634;18.310;2023-04-25T03:31:42;7.20;99.90
12386;DHT22;6257;57.634;18.310;2023-04-25T03:34:10;7.20;99.90
12386;DHT22;6257;57.634;18.310;2023-04-25T03:36:37;7.10;99.90
12386;DHT22;6257;57.634;18.310;2023-04-25T03:39:05;7.10;99.90
12386;DHT22;6257;57.634;18.310;2023-04-25T03:41:32;7.10;99.90
12386;DHT22;6257;57.634;18.310;2023-04-25T03:43:59;7.10;99.90
12386;DHT22;6257;57.634;18.310;2023-04-25T03:46:26;7.10;99.90
12386;DHT22;6257;57.634;18.310;2023-04-25T03:48:54;7.10;99.90
12386;DHT22;6257;57.634;18.310;2023-04-25T03:51:21;7.00;99.90
12386;DHT22;6257;57.634;18.310;2023-04-25T03:53:48;7.10;99.90
12386;DHT22;6257;57.634;18.310;2023-04-25T03:56:16;7.10;99.90
12386;DHT22;6257;57.634;18.310;2023-04-25T03:58:44;7.10;99.90
12386;DHT22;6257;57.634;18.310;2023-04-25T04:01:11;7.10;99.90
12386;DHT22;6257;57.634;18.310;2023-04-25T04:03:38;7.20;99.90
12386;DHT22;6257;57.634;18.310;2023-04-25T04:06:06;7.20;99.90
12386;DHT22;6257;57.634;18.310;2023-04-25T04:08:33;7.20;99.90
12386;DHT22;6257;57.634;18.310;2023-04-25T04:11:00;7.20;99.90
12386;DHT22;6257;57.634;18.310;2023-04-25T04:15:57;7.10;99.90
12386;DHT22;6257;57.634;18.310;2023-04-25T04:18:24;7.20;99.90
12386;DHT22;6257;57.634;18.310;2023-04-25T04:20:51;7.10;99.90
12386;DHT22;6257;57.634;18.310;2023-04-25T04:23:19;7.10;99.90
12386;DHT22;6257;57.634;18.310;2023-04-25T04:25:46;7.10;99.90
12386;DHT22;6257;57.634;18.310;2023-04-25T04:28:14;7.10;99.90
12386;DHT22;6257;57.634;18.310;2023-04-25T04:30:43;7.10;99.90
12386;DHT22;6257;57.634;18.310;2023-04-25T04:33:12;7.00;99.90
12386;DHT22;6257;57.634;18.310;2023-04-25T04:35:41;7.10;99.90
12386;DHT22;6257;57.634;18.310;2023-04-25T04:38:09;7.10;99.90
12386;DHT22;6257;57.634;18.310;2023-04-25T04:40:37;7.20;99.90
12386;DHT22;6257;57.634;18.310;2023-04-25T04:43:04;7.20;99.90
12386;DHT22;6257;57.634;18.310;2023-04-25T04:45:34;7.30;99.90
12386;DHT22;6257;57.634;18.310;2023-04-25T04:48:04;7.30;99.90
12386;DHT22;6257;57.634;18.310;2023-04-25T04:50:32;7.30;99.90
12386;DHT22;6257;57.634;18.310;2023-04-25T04:52:59;7.30;99.90
12386;DHT22;6257;57.634;18.310;2023-04-25T04:55:26;7.30;99.90
12386;DHT22;6257;57.634;18.310;2023-04-25T04:57:53;7.30;99.90
12386;DHT22;6257;57.634;18.310;2023-04-25T05:00:21;7.30;99.90
12386;DHT22;6257;57.634;18.310;2023-04-25T05:02:48;7.30;99.90
12386;DHT22;6257;57.634;18.310;2023-04-25T05:07:43;7.30;99.90
12386;DHT22;6257;57.634;18.310;2023-04-25T05:10:10;7.30;99.90
12386;DHT22;6257;57.634;18.310;2023-04-25T05:12:38;7.40;99.90
12386;DHT22;6257;57.634;18.310;2023-04-25T05:15:05;6.60;99.90
12386;DHT22;6257;57.634;18.310;2023-04-25T05:17:33;7.40;99.90
12386;DHT22;6257;57.634;18.310;2023-04-25T05:20:00;7.40;99.90
12386;DHT22;6257;57.634;18.310;2023-04-25T05:24:56;7.60;99.90
12386;DHT22;6257;57.634;18.310;2023-04-25T05:27:23;7.80;99.90
12386;DHT22;6257;57.634;18.310;2023-04-25T05:29:51;7.80;99.90
12386;DHT22;6257;57.634;18.310;2023-04-25T05:32:18;7.80;99.90
12386;DHT22;6257;57.634;18.310;2023-04-25T05:34:45;7.80;99.90
12386;DHT22;6257;57.634;18.310;2023-04-25T05:37:12;7.80;99.90
12386;DHT22;6257;57.634;18.310;2023-04-25T05:42:08;7.90;99.90
12386;DHT22;6257;57.634;18.310;2023-04-25T05:44:35;7.90;99.90
12386;DHT22;6257;57.634;18.310;2023-04-25T05:47:03;7.90;99.90
12386;DHT22;6257;57.634;18.310;2023-04-25T05:49:30;8.00;99.90
12386;DHT22;6257;57.634;18.310;2023-04-25T05:51:57;8.10;99.90
12386;DHT22;6257;57.634;18.310;2023-04-25T05:54:24;8.10;99.90
12386;DHT22;6257;57.634;18.310;2023-04-25T05:59:20;8.10;99.90
12386;DHT22;6257;57.634;18.310;2023-04-25T06:01:47;8.00;99.90
12386;DHT22;6257;57.634;18.310;2023-04-25T06:04:15;8.10;99.90
12386;DHT22;6257;57.634;18.310;2023-04-25T06:06:42;8.10;99.90
12386;DHT22;6257;57.634;18.310;2023-04-25T06:09:09;8.10;99.90
12386;DHT22;6257;57.634;18.310;2023-04-25T06:11:36;8.10;99.90
12386;DHT22;6257;57.634;18.310;2023-04-25T06:14:06;8.10;99.90
12386;DHT22;6257;57.634;18.310;2023-04-25T06:16:33;8.10;99.90
12386;DHT22;6257;57.634;18.310;2023-04-25T06:19:00;8.10;99.90
12386;DHT22;6257;57.634;18.310;2023-04-25T06:21:27;8.10;99.90
12386;DHT22;6257;57.634;18.310;2023-04-25T06:23:55;8.00;99.90
12386;DHT22;6257;57.634;18.310;2023-04-25T06:28:49;8.00;99.90
12386;DHT22;6257;57.634;18.310;2023-04-25T06:33:45;8.20;99.90
12386;DHT22;6257;57.634;18.310;2023-04-25T06:36:13;8.20;99.90
12386;DHT22;6257;57.634;18.310;2023-04-25T06:38:40;8.30;99.90
12386;DHT22;6257;57.634;18.310;2023-04-25T06:41:08;8.30;99.90
12386;DHT22;6257;57.634;18.310;2023-04-25T06:43:35;8.40;99.90
12386;DHT22;6257;57.634;18.310;2023-04-25T06:46:02;8.40;99.90
12386;DHT22;6257;57.634;18.310;2023-04-25T06:50:58;8.40;99.90
12386;DHT22;6257;57.634;18.310;2023-04-25T06:53:25;8.70;99.90
12386;DHT22;6257;57.634;18.310;2023-04-25T06:55:52;8.90;99.90
12386;DHT22;6257;57.634;18.310;2023-04-25T06:58:19;9.10;99.90
12386;DHT22;6257;57.634;18.310;2023-04-25T07:03:13;9.30;99.90
12386;DHT22;6257;57.634;18.310;2023-04-25T07:08:11;9.50;99.90
12386;DHT22;6257;57.634;18.310;2023-04-25T07:10:38;9.50;99.90
12386;DHT22;6257;57.634;18.310;2023-04-25T07:13:06;9.50;99.90
12386;DHT22;6257;57.634;18.310;2023-04-25T07:15:33;9.50;99.90
12386;DHT22;6257;57.634;18.310;2023-04-25T07:18:00;9.50;99.90
12386;DHT22;6257;57.634;18.310;2023-04-25T07:20:27;9.50;99.90
12386;DHT22;6257;57.634;18.310;2023-04-25T07:22:57;9.40;99.90
12386;DHT22;6257;57.634;18.310;2023-04-25T07:25:25;9.50;99.90
12386;DHT22;6257;57.634;18.310;2023-04-25T07:32:46;9.50;99.90
12386;DHT22;6257;57.634;18.310;2023-04-25T07:35:14;9.60;99.90
12386;DHT22;6257;57.634;18.310;2023-04-25T07:37:42;9.60;99.90
12386;DHT22;6257;57.634;18.310;2023-04-25T07:40:12;9.60;99.90
12386;DHT22;6257;57.634;18.310;2023-04-25T07:42:41;9.50;99.90
12386;DHT22;6257;57.634;18.310;2023-04-25T07:45:09;9.50;99.90
12386;DHT22;6257;57.634;18.310;2023-04-25T07:52:31;9.50;99.90
12386;DHT22;6257;57.634;18.310;2023-04-25T07:54:58;9.50;99.90
12386;DHT22;6257;57.634;18.310;2023-04-25T07:59:54;9.50;99.90
12386;DHT22;6257;57.634;18.310;2023-04-25T08:04:49;9.70;99.90
12386;DHT22;6257;57.634;18.310;2023-04-25T08:07:16;9.70;99.90
12386;DHT22;6257;57.634;18.310;2023-04-25T08:09:43;9.60;99.90
12386;DHT22;6257;57.634;18.310;2023-04-25T08:12:10;9.50;99.90
12386;DHT22;6257;57.634;18.310;2023-04-25T08:14:39;9.60;99.90
12386;DHT22;6257;57.634;18.310;2023-04-25T08:17:06;9.70;99.90
12386;DHT22;6257;57.634;18.310;2023-04-25T08:19:33;9.80;99.90
12386;DHT22;6257;57.634;18.310;2023-04-25T08:22:00;10.00;99.90
12386;DHT22;6257;57.634;18.310;2023-04-25T08:24:27;9.90;99.90
12386;DHT22;6257;57.634;18.310;2023-04-25T08:26:54;10.00;99.90
12386;DHT22;6257;57.634;18.310;2023-04-25T08:34:20;9.90;99.90
12386;DHT22;6257;57.634;18.310;2023-04-25T08:39:14;10.10;99.90
12386;DHT22;6257;57.634;18.310;2023-04-25T08:41:42;10.20;99.90
12386;DHT22;6257;57.634;18.310;2023-04-25T08:44:10;10.30;99.90
12386;DHT22;6257;57.634;18.310;2023-04-25T08:46:38;10.40;99.90
12386;DHT22;6257;57.634;18.310;2023-04-25T08:49:08;10.50;99.90
12386;DHT22;6257;57.634;18.310;2023-04-25T08:51:39;10.50;99.90
12386;DHT22;6257;57.634;18.310;2023-04-25T08:54:12;10.70;99.90
12386;DHT22;6257;57.634;18.310;2023-04-25T08:56:41;11.00;99.90
12386;DHT22;6257;57.634;18.310;2023-04-25T08:59:10;11.10;99.90
12386;DHT22;6257;57.634;18.310;2023-04-25T09:01:38;11.10;99.90
12386;DHT22;6257;57.634;18.310;2023-04-25T09:04:06;11.10;99.90
12386;DHT22;6257;57.634;18.310;2023-04-25T09:06:34;11.10;99.90
12386;DHT22;6257;57.634;18.310;2023-04-25T09:09:03;11.10;99.90
12386;DHT22;6257;57.634;18.310;2023-04-25T09:11:31;10.90;99.90
12386;DHT22;6257;57.634;18.310;2023-04-25T09:14:12;11.40;99.90
12386;DHT22;6257;57.634;18.310;2023-04-25T09:16:58;11.20;99.90
12386;DHT22;6257;57.634;18.310;2023-04-25T09:19:29;11.30;99.90
12386;DHT22;6257;57.634;18.310;2023-04-25T09:21:57;11.50;99.90
12386;DHT22;6257;57.634;18.310;2023-04-25T09:24:31;11.50;99.90
12386;DHT22;6257;57.634;18.310;2023-04-25T09:29:30;11.30;99.90
12386;DHT22;6257;57.634;18.310;2023-04-25T09:32:11;11.30;99.90
12386;DHT22;6257;57.634;18.310;2023-04-25T09:34:41;11.20;99.90
12386;DHT22;6257;57.634;18.310;2023-04-25T09:37:09;11.10;99.90
12386;DHT22;6257;57.634;18.310;2023-04-25T09:39:37;11.00;99.90
12386;DHT22;6257;57.634;18.310;2023-04-25T09:42:04;10.70;99.90
12386;DHT22;6257;57.634;18.310;2023-04-25T09:44:31;10.50;99.90
12386;DHT22;6257;57.634;18.310;2023-04-25T09:49:28;10.60;99.90
12386;DHT22;6257;57.634;18.310;2023-04-25T09:51:57;10.70;99.90
12386;DHT22;6257;57.634;18.310;2023-04-25T09:54:25;10.90;99.90
12386;DHT22;6257;57.634;18.310;2023-04-25T09:59:20;10.90;99.90
12386;DHT22;6257;57.634;18.310;2023-04-25T10:01:49;10.80;99.90
12386;DHT22;6257;57.634;18.310;2023-04-25T10:04:21;10.80;99.90
12386;DHT22;6257;57.634;18.310;2023-04-25T10:06:49;13.30;99.90
12386;DHT22;6257;57.634;18.310;2023-04-25T10:09:20;11.00;99.90
12386;DHT22;6257;57.634;18.310;2023-04-25T10:11:48;11.00;99.90
12386;DHT22;6257;57.634;18.310;2023-04-25T10:14:18;10.90;99.90
12386;DHT22;6257;57.634;18.310;2023-04-25T10:16:45;13.30;99.90
12386;DHT22;6257;57.634;18.310;2023-04-25T10:19:14;10.90;99.90
12386;DHT22;6257;57.634;18.310;2023-04-25T10:21:48;11.00;99.90
12386;DHT22;6257;57.634;18.310;2023-04-25T10:24:16;11.00;99.90
12386;DHT22;6257;57.634;18.310;2023-04-25T10:29:12;10.80;99.90
12386;DHT22;6257;57.634;18.310;2023-04-25T10:31:47;10.80;99.90
12386;DHT22;6257;57.634;18.310;2023-04-25T10:34:15;10.80;99.90
12386;DHT22;6257;57.634;18.310;2023-04-25T10:36:43;10.80;99.90
12386;DHT22;6257;57.634;18.310;2023-04-25T10:39:21;10.90;99.90
12386;DHT22;6257;57.634;18.310;2023-04-25T10:41:56;10.80;99.90
12386;DHT22;6257;57.634;18.310;2023-04-25T10:44:26;10.80;99.90
12386;DHT22;6257;57.634;18.310;2023-04-25T10:46:55;10.80;99.90
12386;DHT22;6257;57.634;18.310;2023-04-25T10:49:31;10.80;99.90
12386;DHT22;6257;57.634;18.310;2023-04-25T10:52:12;10.80;99.90
12386;DHT22;6257;57.634;18.310;2023-04-25T10:54:46;10.80;99.90
12386;DHT22;6257;57.634;18.310;2023-04-25T10:57:31;10.70;99.90
12386;DHT22;6257;57.634;18.310;2023-04-25T11:00:06;10.60;99.90
12386;DHT22;6257;57.634;18.310;2023-04-25T11:02:37;10.40;99.90
12386;DHT22;6257;57.634;18.310;2023-04-25T11:05:05;10.50;99.90
12386;DHT22;6257;57.634;18.310;2023-04-25T11:07:37;10.60;99.90
12386;DHT22;6257;57.634;18.310;2023-04-25T11:10:05;10.60;99.90
12386;DHT22;6257;57.634;18.310;2023-04-25T11:12:34;10.70;99.90
12386;DHT22;6257;57.634;18.310;2023-04-25T11:15:03;10.70;99.90
12386;DHT22;6257;57.634;18.310;2023-04-25T11:17:31;10.60;99.90
12386;DHT22;6257;57.634;18.310;2023-04-25T11:19:59;10.60;99.90
12386;DHT22;6257;57.634;18.310;2023-04-25T11:22:27;10.70;99.90
12386;DHT22;6257;57.634;18.310;2023-04-25T11:24:55;10.80;99.90
12386;DHT22;6257;57.634;18.310;2023-04-25T11:27:22;11.00;99.90
12386;DHT22;6257;57.634;18.310;2023-04-25T11:29:51;11.10;99.90
12386;DHT22;6257;57.634;18.310;2023-04-25T11:32:20;11.10;99.90
12386;DHT22;6257;57.634;18.310;2023-04-25T11:34:47;11.20;99.90
12386;DHT22;6257;57.634;18.310;2023-04-25T11:37:15;11.30;99.90
12386;DHT22;6257;57.634;18.310;2023-04-25T11:39:45;11.30;99.90
12386;DHT22;6257;57.634;18.310;2023-04-25T11:42:13;11.30;99.90
12386;DHT22;6257;57.634;18.310;2023-04-25T11:44:40;11.20;99.90
12386;DHT22;6257;57.634;18.310;2023-04-25T11:49:37;11.20;99.90
12386;DHT22;6257;57.634;18.310;2023-04-25T11:52:06;11.10;99.90
12386;DHT22;6257;57.634;18.310;2023-04-25T11:54:35;11.00;99.90
12386;DHT22;6257;57.634;18.310;2023-04-25T11:57:03;11.00;99.90
12386;DHT22;6257;57.634;18.310;2023-04-25T11:59:31;11.00;99.90
12386;DHT22;6257;57.634;18.310;2023-04-25T12:01:58;11.00;99.90
12386;DHT22;6257;57.634;18.310;2023-04-25T12:04:30;11.20;99.90
12386;DHT22;6257;57.634;18.310;2023-04-25T12:06:58;11.10;99.90
12386;DHT22;6257;57.634;18.310;2023-04-25T12:09:31;11.30;99.90
12386;DHT22;6257;57.634;18.310;2023-04-25T12:11:59;11.20;99.90
12386;DHT22;6257;57.634;18.310;2023-04-25T12:14:30;11.20;99.90
12386;DHT22;6257;57.634;18.310;2023-04-25T12:16:58;11.20;99.90
12386;DHT22;6257;57.634;18.310;2023-04-25T12:19:26;11.40;99.90
12386;DHT22;6257;57.634;18.310;2023-04-25T12:21:54;11.60;99.90
12386;DHT22;6257;57.634;18.310;2023-04-25T12:24:23;11.60;99.90
12386;DHT22;6257;57.634;18.310;2023-04-25T12:26:52;11.40;99.90
12386;DHT22;6257;57.634;18.310;2023-04-25T12:29:21;11.50;99.90
12386;DHT22;6257;57.634;18.310;2023-04-25T12:31:49;11.50;99.90
12386;DHT22;6257;57.634;18.310;2023-04-25T12:34:17;11.60;99.90
12386;DHT22;6257;57.634;18.310;2023-04-25T12:36:44;11.50;99.90
12386;DHT22;6257;57.634;18.310;2023-04-25T12:39:16;11.50;99.90
12386;DHT22;6257;57.634;18.310;2023-04-25T12:41:43;11.40;99.90
12386;DHT22;6257;57.634;18.310;2023-04-25T12:44:11;11.30;99.90
12386;DHT22;6257;57.634;18.310;2023-04-25T12:46:38;11.20;99.90
12386;DHT22;6257;57.634;18.310;2023-04-25T12:49:06;11.30;99.90
12386;DHT22;6257;57.634;18.310;2023-04-25T12:51:34;11.30;99.90
12386;DHT22;6257;57.634;18.310;2023-04-25T12:54:01;11.20;99.90
12386;DHT22;6257;57.634;18.310;2023-04-25T12:56:30;11.30;99.90
12386;DHT22;6257;57.634;18.310;2023-04-25T12:58:58;11.20;99.90
12386;DHT22;6257;57.634;18.310;2023-04-25T13:01:25;11.20;99.90
12386;DHT22;6257;57.634;18.310;2023-04-25T13:03:53;11.10;99.90
12386;DHT22;6257;57.634;18.310;2023-04-25T13:06:20;11.00;99.90
12386;DHT22;6257;57.634;18.310;2023-04-25T13:08:48;11.20;99.90
12386;DHT22;6257;57.634;18.310;2023-04-25T13:11:15;11.20;99.90
12386;DHT22;6257;57.634;18.310;2023-04-25T13:13:44;11.30;99.90
12386;DHT22;6257;57.634;18.310;2023-04-25T13:16:11;11.40;99.90
12386;DHT22;6257;57.634;18.310;2023-04-25T13:18:40;11.50;99.90
12386;DHT22;6257;57.634;18.310;2023-04-25T13:21:09;11.40;99.90
12386;DHT22;6257;57.634;18.310;2023-04-25T13:23:36;11.30;99.90
12386;DHT22;6257;57.634;18.310;2023-04-25T13:26:03;11.20;99.90
12386;DHT22;6257;57.634;18.310;2023-04-25T13:33:27;10.90;99.90
12386;DHT22;6257;57.634;18.310;2023-04-25T13:35:54;10.80;99.90
12386;DHT22;6257;57.634;18.310;2023-04-25T13:38:23;10.80;99.90
12386;DHT22;6257;57.634;18.310;2023-04-25T13:40:51;11.00;99.90
12386;DHT22;6257;57.634;18.310;2023-04-25T13:43:19;11.10;99.90
12386;DHT22;6257;57.634;18.310;2023-04-25T13:45:47;11.30;99.90
12386;DHT22;6257;57.634;18.310;2023-04-25T13:48:17;11.30;99.90
12386;DHT22;6257;57.634;18.310;2023-04-25T13:50:44;11.30;99.90
12386;DHT22;6257;57.634;18.310;2023-04-25T13:53:11;11.10;99.90
12386;DHT22;6257;57.634;18.310;2023-04-25T13:55:38;10.90;99.90
12386;DHT22;6257;57.634;18.310;2023-04-25T13:58:06;10.70;99.90
12386;DHT22;6257;57.634;18.310;2023-04-25T14:00:36;10.70;99.90
12386;DHT22;6257;57.634;18.310;2023-04-25T14:03:04;10.80;99.90
12386;DHT22;6257;57.634;18.310;2023-04-25T14:10:34;10.70;99.90
12386;DHT22;6257;57.634;18.310;2023-04-25T14:13:01;10.60;99.90
12386;DHT22;6257;57.634;18.310;2023-04-25T14:15:29;10.60;99.90
12386;DHT22;6257;57.634;18.310;2023-04-25T14:20:24;10.60;99.90
12386;DHT22;6257;57.634;18.310;2023-04-25T14:25:21;10.60;99.90
12386;DHT22;6257;57.634;18.310;2023-04-25T14:30:17;10.80;99.90
12386;DHT22;6257;57.634;18.310;2023-04-25T14:32:44;10.70;99.90
12386;DHT22;6257;57.634;18.310;2023-04-25T14:37:39;10.40;99.90
12386;DHT22;6257;57.634;18.310;2023-04-25T14:40:09;10.40;99.90
12386;DHT22;6257;57.634;18.310;2023-04-25T14:42:37;10.30;99.90
12386;DHT22;6257;57.634;18.310;2023-04-25T14:45:06;10.30;99.90
12386;DHT22;6257;57.634;18.310;2023-04-25T14:47:34;10.30;99.90
12386;DHT22;6257;57.634;18.310;2023-04-25T14:50:01;10.40;99.90
12386;DHT22;6257;57.634;18.310;2023-04-25T14:52:29;10.60;99.90
12386;DHT22;6257;57.634;18.310;2023-04-25T14:54:57;10.60;99.90
12386;DHT22;6257;57.634;18.310;2023-04-25T14:59:54;10.70;99.90
12386;DHT22;6257;57.634;18.310;2023-04-25T15:02:21;10.80;99.90
12386;DHT22;6257;57.634;18.310;2023-04-25T15:04:48;10.90;99.90
12386;DHT22;6257;57.634;18.310;2023-04-25T15:09:43;11.00;99.90
12386;DHT22;6257;57.634;18.310;2023-04-25T15:12:10;10.90;99.90
12386;DHT22;6257;57.634;18.310;2023-04-25T15:14:39;10.80;99.90
12386;DHT22;6257;57.634;18.310;2023-04-25T15:17:06;10.80;99.90
12386;DHT22;6257;57.634;18.310;2023-04-25T15:19:33;10.90;99.90
12386;DHT22;6257;57.634;18.310;2023-04-25T15:22:00;11.00;99.90
12386;DHT22;6257;57.634;18.310;2023-04-25T15:24:29;11.10;99.90
12386;DHT22;6257;57.634;18.310;2023-04-25T15:26:56;11.00;99.90
12386;DHT22;6257;57.634;18.310;2023-04-25T15:29:24;10.70;99.90
12386;DHT22;6257;57.634;18.310;2023-04-25T15:34:20;10.40;99.90
12386;DHT22;6257;57.634;18.310;2023-04-25T15:39:15;10.40;99.90
12386;DHT22;6257;57.634;18.310;2023-04-25T15:41:42;10.30;99.90
12386;DHT22;6257;57.634;18.310;2023-04-25T15:46:37;10.10;99.90
12386;DHT22;6257;57.634;18.310;2023-04-25T15:51:34;9.40;99.90
12386;DHT22;6257;57.634;18.310;2023-04-25T15:54:01;9.40;99.90
12386;DHT22;6257;57.634;18.310;2023-04-25T15:58:56;9.20;99.90
12386;DHT22;6257;57.634;18.310;2023-04-25T16:03:53;9.30;99.90
12386;DHT22;6257;57.634;18.310;2023-04-25T16:08:52;9.30;99.90
12386;DHT22;6257;57.634;18.310;2023-04-25T16:11:19;9.30;99.90
12386;DHT22;6257;57.634;18.310;2023-04-25T16:13:47;9.30;99.90
12386;DHT22;6257;57.634;18.310;2023-04-25T16:16:14;9.40;99.90
12386;DHT22;6257;57.634;18.310;2023-04-25T16:18:41;9.40;99.90
12386;DHT22;6257;57.634;18.310;2023-04-25T16:21:08;9.40;99.90
12386;DHT22;6257;57.634;18.310;2023-04-25T16:26:05;9.30;99.90
12386;DHT22;6257;57.634;18.310;2023-04-25T16:28:33;9.20;99.90
12386;DHT22;6257;57.634;18.310;2023-04-25T16:31:00;9.30;99.90
12386;DHT22;6257;57.634;18.310;2023-04-25T16:33:27;9.20;99.90
12386;DHT22;6257;57.634;18.310;2023-04-25T16:35:54;9.10;99.90
12386;DHT22;6257;57.634;18.310;2023-04-25T16:38:21;9.00;99.90
12386;DHT22;6257;57.634;18.310;2023-04-25T16:43:17;8.90;99.90
12386;DHT22;6257;57.634;18.310;2023-04-25T16:45:45;8.80;99.90
12386;DHT22;6257;57.634;18.310;2023-04-25T16:48:13;8.70;99.90
12386;DHT22;6257;57.634;18.310;2023-04-25T16:50:40;8.70;99.90
12386;DHT22;6257;57.634;18.310;2023-04-25T16:53:08;8.50;99.90
12386;DHT22;6257;57.634;18.310;2023-04-25T16:55:35;8.60;99.90
12386;DHT22;6257;57.634;18.310;2023-04-25T16:58:03;8.60;99.90
12386;DHT22;6257;57.634;18.310;2023-04-25T17:00:31;8.50;99.90
12386;DHT22;6257;57.634;18.310;2023-04-25T17:02:58;8.50;99.90
12386;DHT22;6257;57.634;18.310;2023-04-25T17:05:25;8.40;99.90
12386;DHT22;6257;57.634;18.310;2023-04-25T17:07:53;8.30;99.90
12386;DHT22;6257;57.634;18.310;2023-04-25T17:10:21;8.30;99.90
12386;DHT22;6257;57.634;18.310;2023-04-25T17:12:48;8.30;99.90
12386;DHT22;6257;57.634;18.310;2023-04-25T17:17:44;8.10;99.90
12386;DHT22;6257;57.634;18.310;2023-04-25T17:20:12;8.10;99.90
12386;DHT22;6257;57.634;18.310;2023-04-25T17:22:39;8.10;99.90
12386;DHT22;6257;57.634;18.310;2023-04-25T17:25:07;8.00;99.90
12386;DHT22;6257;57.634;18.310;2023-04-25T17:27:35;8.00;99.90
12386;DHT22;6257;57.634;18.310;2023-04-25T17:30:02;8.00;99.90
12386;DHT22;6257;57.634;18.310;2023-04-25T17:32:31;8.00;99.90
12386;DHT22;6257;57.634;18.310;2023-04-25T17:34:59;7.90;99.90
12386;DHT22;6257;57.634;18.310;2023-04-25T17:37:26;7.90;99.90
12386;DHT22;6257;57.634;18.310;2023-04-25T17:42:20;7.70;99.90
12386;DHT22;6257;57.634;18.310;2023-04-25T17:44:47;7.70;99.90
12386;DHT22;6257;57.634;18.310;2023-04-25T17:47:15;7.60;99.90
12386;DHT22;6257;57.634;18.310;2023-04-25T17:54:39;7.50;99.90
12386;DHT22;6257;57.634;18.310;2023-04-25T17:59:33;7.40;99.90
12386;DHT22;6257;57.634;18.310;2023-04-25T18:02:01;7.30;99.90
12386;DHT22;6257;57.634;18.310;2023-04-25T18:09:25;7.20;99.90